Time;durP1;ratioP1;P1;durP2;ratioP2;P2;SDS_P1;SDS_P2;PMS_P1;PMS_P2;Temp;Humidity;BMP_temperature;BMP_pressure;BME280_temperature;BME280_humidity;BME280_pressure;Samples;Min_cycle;Max_cycle;Signal;HPM_P1;HPM_P2
2023/03/28 00:00:33;;;;;;;1.37;0.80;;;18.30;41.90;;;;;;5005098;28;20223;-62
2023/03/28 00:02:58;;;;;;;1.20;0.80;;;18.30;41.90;;;;;;5004169;28;20284;-61
2023/03/28 00:05:24;;;;;;;1.10;0.70;;;18.30;41.90;;;;;;5009732;28;20943;-58
2023/03/28 00:07:52;;;;;;;1.20;0.90;;;18.30;41.90;;;;;;5000974;28;20226;-67
2023/03/28 00:10:18;;;;;;;1.00;0.90;;;18.30;41.90;;;;;;5009029;28;20243;-66
2023/03/28 00:12:44;;;;;;;1.10;1.00;;;18.30;41.90;;;;;;5011107;28;20502;-61
2023/03/28 00:15:11;;;;;;;1.50;0.90;;;18.30;41.90;;;;;;5009574;28;21029;-61
2023/03/28 00:17:36;;;;;;;1.10;0.80;;;18.30;41.90;;;;;;5011091;28;20478;-59
2023/03/28 00:20:03;;;;;;;0.97;0.80;;;18.30;41.90;;;;;;5012280;28;20491;-58
2023/03/28 00:22:30;;;;;;;0.80;0.70;;;18.30;41.90;;;;;;5012275;28;20226;-60
2023/03/28 00:24:57;;;;;;;0.80;0.80;;;18.30;41.90;;;;;;5007969;28;20804;-61
2023/03/28 00:27:24;;;;;;;0.87;0.80;;;18.30;41.90;;;;;;5000981;28;20803;-62
2023/03/28 00:29:49;;;;;;;0.97;0.80;;;18.30;41.90;;;;;;4998115;28;20506;-61
2023/03/28 00:32:15;;;;;;;1.20;0.90;;;18.30;41.90;;;;;;5003726;28;20435;-68
2023/03/28 00:34:40;;;;;;;1.17;0.90;;;18.30;41.90;;;;;;5005827;28;20654;-62
2023/03/28 00:37:06;;;;;;;1.10;1.00;;;18.30;41.90;;;;;;5018151;28;20223;-58
2023/03/28 00:39:33;;;;;;;1.33;0.97;;;18.30;41.90;;;;;;5015071;28;20235;-58
2023/03/28 00:42:00;;;;;;;1.77;0.97;;;18.30;41.90;;;;;;5018275;28;20901;-59
2023/03/28 00:44:43;;;;;;;0.80;0.80;;;18.30;42.00;;;;;;5017653;28;20452;-61
2023/03/28 00:47:20;;;;;;;1.00;0.80;;;18.30;41.90;;;;;;5017647;28;20476;-61
2023/03/28 00:49:48;;;;;;;1.40;0.80;;;18.30;41.90;;;;;;5017177;28;20467;-62
2023/03/28 00:52:16;;;;;;;3.23;0.80;;;18.30;41.90;;;;;;5021606;28;21216;-60
2023/03/28 00:54:42;;;;;;;1.00;0.90;;;18.30;41.90;;;;;;5019773;28;20458;-58
2023/03/28 00:57:09;;;;;;;0.90;0.80;;;18.30;41.90;;;;;;5034563;28;20571;-58
2023/03/28 00:59:37;;;;;;;0.90;0.80;;;18.30;41.90;;;;;;5016563;28;20435;-62
2023/03/28 01:02:03;;;;;;;1.00;0.90;;;18.30;41.90;;;;;;5021603;28;20468;-57
2023/03/28 01:04:41;;;;;;;0.97;0.80;;;18.30;41.90;;;;;;5021468;28;20456;-61
2023/03/28 01:07:06;;;;;;;1.00;0.90;;;18.30;41.90;;;;;;5019769;28;20426;-59
2023/03/28 01:09:32;;;;;;;1.20;1.10;;;18.30;41.90;;;;;;5022203;28;20512;-59
2023/03/28 01:11:59;;;;;;;1.00;0.80;;;18.30;41.90;;;;;;5017000;28;20282;-62
2023/03/28 01:14:27;;;;;;;0.80;0.80;;;18.30;41.90;;;;;;5023351;28;21335;-60
2023/03/28 01:16:55;;;;;;;0.97;0.80;;;18.30;41.90;;;;;;5020765;28;20593;-63
2023/03/28 01:19:57;;;;;;;1.00;0.80;;;18.30;41.90;;;;;;5018514;28;20434;-62
2023/03/28 01:23:03;;;;;;;0.93;0.90;;;18.30;41.90;;;;;;5015896;28;20467;-59
2023/03/28 01:26:06;;;;;;;1.37;1.00;;;18.30;41.90;;;;;;5016081;28;20533;-58
2023/03/28 01:28:43;;;;;;;0.80;0.80;;;18.30;41.90;;;;;;5018003;28;20538;-60
2023/03/28 01:31:36;;;;;;;0.93;0.83;;;18.30;41.90;;;;;;5014163;28;20455;-61
2023/03/28 01:34:01;;;;;;;1.10;0.90;;;18.30;41.90;;;;;;5014871;28;20471;-66
2023/03/28 01:36:58;;;;;;;0.93;0.90;;;18.20;41.80;;;;;;5018904;28;20440;-59
2023/03/28 01:39:59;;;;;;;1.87;1.00;;;18.30;41.90;;;;;;5015860;28;20223;-60
2023/03/28 01:42:38;;;;;;;1.17;1.00;;;18.30;41.90;;;;;;5005076;28;21221;-67
2023/03/28 01:45:13;;;;;;;0.80;0.80;;;18.20;41.80;;;;;;5006866;28;20454;-59
2023/03/28 01:48:00;;;;;;;1.33;0.70;;;18.20;41.80;;;;;;5011608;28;20902;-59
2023/03/28 01:50:46;;;;;;;1.90;0.90;;;18.20;41.80;;;;;;5016790;28;20467;-62
2023/03/28 01:53:20;;;;;;;1.77;1.20;;;18.20;41.80;;;;;;5015393;28;20452;-60
2023/03/28 01:56:11;;;;;;;0.97;0.80;;;18.20;41.80;;;;;;5012252;28;20431;-65
2023/03/28 01:58:48;;;;;;;0.90;0.80;;;18.20;41.80;;;;;;5017360;28;20591;-60
2023/03/28 02:01:21;;;;;;;0.90;0.77;;;18.20;41.80;;;;;;5016120;28;20944;-59
2023/03/28 02:03:50;;;;;;;0.90;0.70;;;18.20;41.70;;;;;;5014630;28;20427;-63
2023/03/28 02:06:19;;;;;;;0.90;0.67;;;18.20;41.70;;;;;;5013651;28;20452;-61
2023/03/28 02:08:48;;;;;;;1.10;0.90;;;18.20;41.70;;;;;;5016926;28;20455;-59
2023/03/28 02:11:13;;;;;;;0.93;0.80;;;18.20;41.70;;;;;;5016040;28;20459;-59
2023/03/28 02:13:50;;;;;;;1.00;1.00;;;18.20;41.70;;;;;;5017500;28;20426;-58
2023/03/28 02:16:20;;;;;;;0.80;0.80;;;18.20;41.70;;;;;;5020718;28;20658;-60
2023/03/28 02:18:51;;;;;;;0.70;0.70;;;18.20;41.70;;;;;;5016832;28;20551;-63
2023/03/28 02:21:21;;;;;;;1.00;0.77;;;18.20;41.70;;;;;;5014549;28;20499;-62
2023/03/28 02:23:53;;;;;;;0.93;0.80;;;18.20;41.70;;;;;;5012112;28;20449;-63
2023/03/28 02:26:21;;;;;;;1.20;1.00;;;18.20;41.60;;;;;;5021021;28;20474;-59
2023/03/28 02:28:51;;;;;;;0.80;0.80;;;18.20;41.70;;;;;;5014228;28;20460;-65
2023/03/28 02:31:17;;;;;;;0.73;0.73;;;18.20;41.70;;;;;;5021295;28;20471;-63
2023/03/28 02:33:45;;;;;;;2.50;0.73;;;18.20;41.70;;;;;;5022715;28;20434;-66
2023/03/28 02:36:36;;;;;;;0.90;0.80;;;18.20;41.70;;;;;;5019551;28;20990;-63
2023/03/28 02:39:39;;;;;;;1.07;0.73;;;18.20;41.70;;;;;;5015303;28;20464;-63
2023/03/28 02:42:18;;;;;;;0.80;0.63;;;18.20;41.70;;;;;;5023925;28;20535;-61
2023/03/28 02:44:49;;;;;;;1.13;1.03;;;18.20;41.60;;;;;;5023463;28;20526;-58
2023/03/28 02:47:46;;;;;;;1.10;1.00;;;18.20;41.70;;;;;;5017207;28;21132;-61
2023/03/28 02:50:37;;;;;;;1.00;0.90;;;18.20;41.70;;;;;;5019826;28;20566;-58
2023/03/28 02:53:08;;;;;;;0.87;0.80;;;18.20;41.70;;;;;;5018783;28;20450;-58
2023/03/28 02:55:43;;;;;;;0.80;0.80;;;18.20;41.70;;;;;;5020704;28;20937;-61
2023/03/28 02:58:41;;;;;;;1.10;0.80;;;18.20;41.70;;;;;;5018496;28;21049;-58
2023/03/28 03:01:09;;;;;;;0.80;0.77;;;18.20;41.70;;;;;;5012368;28;20428;-65
2023/03/28 03:03:35;;;;;;;0.90;0.80;;;18.20;41.70;;;;;;5017156;28;20519;-60
2023/03/28 03:06:02;;;;;;;0.80;0.80;;;18.20;41.70;;;;;;5021199;28;21150;-65
2023/03/28 03:08:28;;;;;;;0.97;0.80;;;18.20;41.70;;;;;;5013444;28;20497;-67
2023/03/28 03:10:55;;;;;;;0.80;0.80;;;18.20;41.70;;;;;;5021049;28;20455;-59
2023/03/28 03:13:20;;;;;;;1.53;0.70;;;18.20;41.70;;;;;;5018515;28;20478;-64
2023/03/28 03:15:46;;;;;;;1.20;1.10;;;18.20;41.70;;;;;;5017765;28;20455;-59
2023/03/28 03:18:11;;;;;;;1.00;0.80;;;18.20;41.60;;;;;;5018859;28;20662;-61
2023/03/28 03:20:39;;;;;;;0.93;0.87;;;18.20;41.70;;;;;;5018862;28;20264;-62
2023/03/28 03:23:06;;;;;;;1.10;1.00;;;18.20;41.70;;;;;;5021720;28;20223;-61
2023/03/28 03:25:33;;;;;;;1.00;0.80;;;18.20;41.70;;;;;;5018690;28;20453;-62
2023/03/28 03:27:59;;;;;;;1.00;0.90;;;18.20;41.70;;;;;;5017152;28;20762;-59
2023/03/28 03:30:25;;;;;;;1.10;1.00;;;18.20;41.60;;;;;;5018833;28;20487;-58
2023/03/28 03:32:50;;;;;;;1.00;0.90;;;18.20;41.70;;;;;;5016199;28;20430;-67
2023/03/28 03:35:16;;;;;;;1.33;0.90;;;18.20;41.60;;;;;;5018017;28;20415;-62
2023/03/28 03:37:41;;;;;;;0.80;0.80;;;18.20;42.40;;;;;;5022766;28;20592;-62
2023/03/28 03:40:08;;;;;;;1.07;1.00;;;18.20;41.60;;;;;;5018698;28;20226;-60
2023/03/28 03:42:34;;;;;;;0.80;0.80;;;18.20;41.60;;;;;;5018259;28;20245;-59
2023/03/28 03:45:00;;;;;;;1.30;0.90;;;18.20;41.60;;;;;;5018720;28;21487;-58
2023/03/28 03:47:25;;;;;;;1.00;0.90;;;18.20;41.60;;;;;;5016515;28;20446;-59
2023/03/28 03:49:51;;;;;;;1.00;0.80;;;18.20;41.60;;;;;;5019339;28;20288;-62
2023/03/28 03:52:16;;;;;;;1.17;1.00;;;18.20;41.60;;;;;;5018383;28;21001;-59
2023/03/28 03:54:42;;;;;;;0.90;0.80;;;18.20;41.70;;;;;;5019190;28;20219;-60
2023/03/28 03:57:08;;;;;;;0.93;0.83;;;18.20;41.60;;;;;;5014545;28;20215;-60
2023/03/28 03:59:33;;;;;;;1.10;0.90;;;18.20;41.60;;;;;;5016954;28;20215;-59
2023/03/28 04:01:59;;;;;;;1.00;0.90;;;18.20;41.60;;;;;;5012984;28;20211;-67
2023/03/28 04:04:25;;;;;;;0.80;0.80;;;18.20;41.60;;;;;;5014398;28;20221;-58
2023/03/28 04:06:50;;;;;;;1.00;0.90;;;18.20;41.60;;;;;;5020324;28;20757;-61
2023/03/28 04:09:16;;;;;;;0.97;0.90;;;18.20;41.60;;;;;;5011782;28;20224;-59
2023/03/28 04:11:41;;;;;;;1.17;1.07;;;18.20;41.50;;;;;;5017509;28;20274;-60
2023/03/28 04:14:07;;;;;;;0.80;0.80;;;18.30;41.50;;;;;;5016801;28;20333;-61
2023/03/28 04:16:36;;;;;;;1.00;0.90;;;18.30;41.50;;;;;;5014022;28;20296;-59
2023/03/28 04:19:02;;;;;;;1.10;0.90;;;18.30;41.40;;;;;;5018613;28;20234;-60
2023/03/28 04:21:31;;;;;;;0.90;0.80;;;18.30;41.50;;;;;;5018783;28;20477;-58
2023/03/28 04:24:00;;;;;;;1.10;1.00;;;18.30;41.20;;;;;;5020586;28;20432;-60
2023/03/28 04:26:26;;;;;;;0.90;0.80;;;18.30;41.30;;;;;;5015793;28;20655;-60
2023/03/28 04:28:53;;;;;;;0.87;0.83;;;18.30;41.20;;;;;;5018142;28;20443;-60
2023/03/28 04:31:20;;;;;;;0.90;0.80;;;18.30;41.20;;;;;;5007079;28;20891;-62
2023/03/28 04:33:46;;;;;;;1.17;1.07;;;18.30;41.20;;;;;;5016217;28;20434;-59
2023/03/28 04:36:15;;;;;;;1.20;1.10;;;18.30;41.20;;;;;;5017387;28;20467;-65
2023/03/28 04:38:44;;;;;;;1.10;1.00;;;18.30;41.20;;;;;;5017246;28;20451;-60
2023/03/28 04:41:11;;;;;;;1.10;1.00;;;18.30;41.20;;;;;;5013143;28;20431;-62
2023/03/28 04:43:36;;;;;;;1.10;1.00;;;18.30;41.20;;;;;;5015882;28;20502;-59
2023/03/28 04:46:02;;;;;;;0.90;0.90;;;18.30;41.10;;;;;;5017076;28;20813;-61
2023/03/28 04:48:28;;;;;;;0.90;0.83;;;18.30;41.10;;;;;;5007915;28;20245;-59
2023/03/28 04:50:54;;;;;;;2.70;1.03;;;18.30;41.10;;;;;;5017694;28;20238;-64
2023/03/28 04:53:20;;;;;;;1.10;1.00;;;18.30;41.10;;;;;;5018442;28;20313;-60
2023/03/28 04:55:49;;;;;;;1.20;1.10;;;18.30;41.10;;;;;;5020889;28;20302;-61
2023/03/28 04:58:20;;;;;;;0.97;0.80;;;18.30;41.10;;;;;;5020513;28;20547;-60
2023/03/28 05:00:48;;;;;;;0.97;0.87;;;18.30;41.10;;;;;;5020864;28;20452;-61
2023/03/28 05:03:19;;;;;;;1.50;0.90;;;18.30;41.10;;;;;;5022494;28;20461;-59
2023/03/28 05:05:50;;;;;;;1.20;1.10;;;18.30;41.00;;;;;;5018103;28;20426;-59
2023/03/28 05:08:17;;;;;;;1.00;0.90;;;18.30;41.10;;;;;;5008816;28;20793;-60
2023/03/28 05:10:44;;;;;;;1.17;1.07;;;18.30;41.10;;;;;;5017985;28;20456;-61
2023/03/28 05:13:10;;;;;;;1.20;1.10;;;18.30;41.00;;;;;;5016407;28;20433;-63
2023/03/28 05:15:36;;;;;;;1.20;1.10;;;18.30;41.10;;;;;;5019078;28;20419;-64
2023/03/28 05:18:01;;;;;;;1.10;1.00;;;18.30;41.00;;;;;;5013988;28;20226;-65
2023/03/28 05:20:27;;;;;;;1.10;0.80;;;18.30;41.00;;;;;;5015562;28;20223;-67
2023/03/28 05:22:53;;;;;;;1.37;1.23;;;18.30;41.00;;;;;;5015007;28;20531;-63
2023/03/28 05:25:18;;;;;;;1.33;1.10;;;18.30;40.90;;;;;;5015407;28;20223;-58
2023/03/28 05:27:45;;;;;;;1.13;1.03;;;18.30;40.90;;;;;;5008078;28;20246;-62
2023/03/28 05:30:11;;;;;;;2.03;0.93;;;18.30;40.90;;;;;;5009137;28;20230;-58
2023/03/28 05:32:37;;;;;;;1.10;1.00;;;18.30;40.90;;;;;;5017841;28;20431;-60
2023/03/28 05:35:04;;;;;;;1.30;1.20;;;18.30;40.90;;;;;;5020994;28;20467;-60
2023/03/28 05:37:30;;;;;;;1.20;1.10;;;18.30;40.90;;;;;;5015387;28;20942;-58
2023/03/28 05:39:55;;;;;;;2.17;1.10;;;18.40;41.00;;;;;;5014998;28;20472;-61
2023/03/28 05:42:21;;;;;;;1.00;0.90;;;18.30;40.90;;;;;;5020508;28;20586;-62
2023/03/28 05:44:46;;;;;;;1.43;1.33;;;18.30;40.90;;;;;;5018991;28;20218;-61
2023/03/28 05:47:12;;;;;;;1.20;1.10;;;18.30;40.90;;;;;;5017837;28;20237;-58
2023/03/28 05:49:38;;;;;;;2.23;1.30;;;18.30;41.00;;;;;;5022738;28;20248;-59
2023/03/28 05:52:03;;;;;;;1.20;0.90;;;18.30;40.90;;;;;;5021475;28;20230;-58
2023/03/28 05:54:29;;;;;;;2.20;1.30;;;18.30;40.90;;;;;;5015654;28;20218;-59
2023/03/28 05:56:54;;;;;;;1.30;1.20;;;18.30;40.90;;;;;;5018543;28;20230;-62
2023/03/28 05:59:23;;;;;;;1.20;1.10;;;18.30;40.90;;;;;;5025188;28;20226;-59
2023/03/28 06:01:51;;;;;;;1.23;1.13;;;18.30;40.90;;;;;;5015464;28;20237;-59
2023/03/28 06:04:21;;;;;;;1.40;1.20;;;18.30;40.90;;;;;;5016742;28;20442;-63
2023/03/28 06:06:47;;;;;;;1.20;1.10;;;18.30;41.00;;;;;;5022596;28;20449;-59
2023/03/28 06:09:14;;;;;;;2.13;1.13;;;18.30;41.00;;;;;;5017918;28;20525;-60
2023/03/28 06:11:40;;;;;;;1.00;0.90;;;18.30;41.00;;;;;;5013456;28;20492;-60
2023/03/28 06:14:06;;;;;;;1.20;1.10;;;18.30;41.00;;;;;;5019432;28;20433;-60
2023/03/28 06:16:32;;;;;;;1.30;1.20;;;18.30;40.90;;;;;;5018088;28;20227;-60
2023/03/28 06:18:57;;;;;;;1.20;1.10;;;18.30;41.00;;;;;;5018132;28;20850;-63
2023/03/28 06:21:23;;;;;;;1.37;1.03;;;18.30;41.00;;;;;;5018278;28;20260;-59
2023/03/28 06:23:48;;;;;;;2.43;1.40;;;18.30;41.00;;;;;;5018273;28;20249;-63
2023/03/28 06:26:14;;;;;;;1.60;1.50;;;18.30;41.00;;;;;;5015662;28;20325;-59
2023/03/28 06:28:40;;;;;;;1.97;1.20;;;18.30;41.00;;;;;;5015722;28;20674;-59
2023/03/28 06:31:05;;;;;;;1.40;1.20;;;18.30;40.90;;;;;;5015896;28;20234;-58
2023/03/28 06:33:31;;;;;;;1.20;1.10;;;18.30;40.90;;;;;;5015568;28;20310;-58
2023/03/28 06:35:56;;;;;;;1.30;1.20;;;18.30;41.00;;;;;;5015399;28;20222;-62
2023/03/28 06:38:22;;;;;;;1.47;1.10;;;18.30;41.00;;;;;;5011502;28;20234;-61
2023/03/28 06:40:47;;;;;;;1.50;1.30;;;18.30;41.00;;;;;;5016598;28;20778;-60
2023/03/28 06:43:13;;;;;;;2.50;1.30;;;18.30;40.90;;;;;;5017031;28;20219;-62
2023/03/28 06:45:39;;;;;;;1.30;1.20;;;18.30;40.90;;;;;;5013690;28;20231;-58
2023/03/28 06:48:05;;;;;;;1.70;1.30;;;18.30;40.90;;;;;;5013912;28;20675;-59
2023/03/28 06:50:30;;;;;;;1.60;1.47;;;18.30;41.00;;;;;;5012098;28;20551;-58
2023/03/28 06:52:56;;;;;;;1.23;1.10;;;18.30;40.90;;;;;;5014597;28;20253;-59
2023/03/28 06:55:22;;;;;;;3.03;1.30;;;18.30;40.90;;;;;;5010715;28;20277;-60
2023/03/28 06:57:47;;;;;;;1.40;1.30;;;18.30;40.90;;;;;;5012770;28;20679;-60
2023/03/28 07:00:13;;;;;;;1.83;1.17;;;18.30;40.90;;;;;;5011343;28;20246;-62
2023/03/28 07:02:39;;;;;;;1.20;1.10;;;18.30;41.70;;;;;;5012272;28;20242;-59
2023/03/28 07:05:05;;;;;;;1.50;1.20;;;18.30;40.90;;;;;;5009254;28;20415;-58
2023/03/28 07:07:31;;;;;;;1.63;1.50;;;18.30;40.90;;;;;;5012649;28;20230;-65
2023/03/28 07:09:56;;;;;;;1.33;1.10;;;18.30;40.90;;;;;;5014919;28;20279;-62
2023/03/28 07:12:22;;;;;;;2.60;1.20;;;18.30;40.90;;;;;;5016161;28;20303;-65
2023/03/28 07:14:47;;;;;;;1.50;1.20;;;18.30;40.90;;;;;;5020118;28;20325;-59
2023/03/28 07:17:13;;;;;;;1.77;1.10;;;18.30;40.90;;;;;;5018112;28;20318;-61
2023/03/28 07:19:39;;;;;;;1.50;1.40;;;18.30;40.90;;;;;;5016028;28;20230;-59
2023/03/28 07:22:04;;;;;;;2.40;1.30;;;18.30;40.90;;;;;;5014300;28;20238;-61
2023/03/28 07:24:30;;;;;;;2.13;1.40;;;18.30;40.90;;;;;;5019273;28;20723;-60
2023/03/28 07:26:56;;;;;;;2.00;1.57;;;18.30;40.80;;;;;;5017177;28;20274;-58
2023/03/28 07:29:21;;;;;;;1.50;1.07;;;18.30;40.80;;;;;;5016650;28;20235;-61
2023/03/28 07:31:47;;;;;;;1.87;1.40;;;18.30;40.80;;;;;;5015093;28;20608;-61
2023/03/28 07:34:17;;;;;;;1.30;1.20;;;18.30;40.80;;;;;;5024744;28;20227;-64
2023/03/28 07:36:42;;;;;;;1.30;1.20;;;18.30;40.80;;;;;;5020952;28;20235;-62
2023/03/28 07:39:09;;;;;;;1.30;1.20;;;18.30;40.80;;;;;;5014686;28;21102;-62
2023/03/28 07:41:34;;;;;;;1.60;1.10;;;18.30;40.80;;;;;;5024521;28;20724;-64
2023/03/28 07:44:00;;;;;;;1.27;1.17;;;18.30;40.80;;;;;;5019780;28;20467;-58
2023/03/28 07:46:26;;;;;;;1.30;1.20;;;18.30;40.80;;;;;;5026511;28;20280;-59
2023/03/28 07:48:51;;;;;;;1.20;1.10;;;18.30;41.50;;;;;;5021249;28;20230;-61
2023/03/28 07:51:17;;;;;;;1.20;1.10;;;18.30;40.80;;;;;;5016522;28;20277;-58
2023/03/28 07:53:42;;;;;;;1.33;1.23;;;18.30;40.80;;;;;;5020667;28;20219;-58
2023/03/28 07:56:11;;;;;;;2.90;1.30;;;18.30;40.80;;;;;;5012779;28;20242;-59
2023/03/28 07:58:38;;;;;;;1.20;1.10;;;18.30;40.70;;;;;;5017725;28;20262;-62
2023/03/28 08:01:09;;;;;;;1.40;1.30;;;18.30;40.80;;;;;;5016043;28;20843;-59
2023/03/28 08:03:35;;;;;;;1.27;1.10;;;18.30;40.80;;;;;;5016183;28;20975;-62
2023/03/28 08:06:07;;;;;;;1.30;1.00;;;18.30;40.80;;;;;;5015710;28;20429;-63
2023/03/28 08:08:32;;;;;;;1.73;1.10;;;18.30;40.80;;;;;;5017261;28;20226;-59
2023/03/28 08:10:58;;;;;;;1.13;1.03;;;18.30;40.70;;;;;;5013712;28;21527;-61
2023/03/28 08:13:24;;;;;;;1.97;1.40;;;18.30;40.70;;;;;;5016456;28;20307;-61
2023/03/28 08:15:52;;;;;;;1.17;1.07;;;18.30;40.70;;;;;;5019509;28;20293;-60
2023/03/28 08:18:20;;;;;;;1.10;1.00;;;18.30;40.80;;;;;;5018067;28;20438;-62
2023/03/28 08:20:49;;;;;;;1.27;1.17;;;18.30;40.70;;;;;;5013534;28;20422;-60
2023/03/28 08:23:15;;;;;;;1.30;1.20;;;18.30;40.70;;;;;;5014148;28;20946;-59
2023/03/28 08:25:41;;;;;;;1.20;1.00;;;18.30;40.70;;;;;;5014789;28;20425;-61
2023/03/28 08:28:07;;;;;;;1.30;1.20;;;18.30;40.60;;;;;;5013428;28;20435;-64
2023/03/28 08:30:33;;;;;;;1.30;1.20;;;18.30;40.80;;;;;;5014589;28;20443;-59
2023/03/28 08:32:59;;;;;;;1.00;0.90;;;18.30;40.70;;;;;;5015337;28;20488;-62
2023/03/28 08:35:25;;;;;;;1.67;1.10;;;18.40;40.80;;;;;;5018498;28;20309;-58
2023/03/28 08:37:51;;;;;;;1.63;1.17;;;18.30;40.70;;;;;;5011604;28;20219;-59
2023/03/28 08:40:19;;;;;;;2.30;1.37;;;18.30;40.70;;;;;;5016953;28;20251;-62
2023/03/28 08:43:29;;;;;;;1.40;1.30;;;18.30;40.70;;;;;;5020326;28;20487;-59
2023/03/28 08:45:58;;;;;;;1.20;1.10;;;18.30;40.70;;;;;;5003701;28;20456;-67
2023/03/28 08:48:43;;;;;;;1.10;1.00;;;18.30;40.70;;;;;;5016643;28;20448;-58
2023/03/28 08:51:21;;;;;;;1.20;0.93;;;18.30;40.70;;;;;;5016396;28;20469;-61
2023/03/28 08:54:02;;;;;;;1.10;1.00;;;18.30;40.80;;;;;;5020301;28;20437;-61
2023/03/28 08:56:31;;;;;;;2.37;1.07;;;18.30;40.70;;;;;;5017247;28;20468;-66
2023/03/28 08:59:07;;;;;;;1.50;1.40;;;18.30;40.70;;;;;;5017919;28;20530;-61
2023/03/28 09:01:33;;;;;;;1.50;1.27;;;18.30;40.70;;;;;;5021186;28;20857;-61
2023/03/28 09:04:00;;;;;;;1.10;1.00;;;18.30;40.70;;;;;;5020388;28;20430;-63
2023/03/28 09:06:32;;;;;;;1.20;1.10;;;18.30;40.70;;;;;;5023668;28;20226;-58
2023/03/28 09:09:09;;;;;;;1.60;1.10;;;18.30;40.80;;;;;;5017552;28;20934;-59
2023/03/28 09:12:01;;;;;;;1.00;0.90;;;18.30;40.70;;;;;;5020613;28;20443;-63
2023/03/28 09:14:49;;;;;;;1.30;1.10;;;18.40;40.80;;;;;;5021406;28;20459;-60
2023/03/28 09:17:22;;;;;;;1.00;0.87;;;18.30;40.60;;;;;;5019974;28;20434;-59
2023/03/28 09:19:48;;;;;;;1.30;1.20;;;18.40;40.80;;;;;;5017661;28;20437;-59
2023/03/28 09:22:33;;;;;;;1.07;0.97;;;18.40;40.70;;;;;;5018915;28;20447;-62
2023/03/28 09:25:05;;;;;;;1.67;0.90;;;18.30;40.60;;;;;;5016181;28;20237;-58
2023/03/28 09:27:36;;;;;;;1.30;0.90;;;18.30;41.40;;;;;;5013453;28;20546;-59
2023/03/28 09:30:19;;;;;;;1.27;1.17;;;18.40;40.70;;;;;;5015175;28;20448;-59
2023/03/28 09:32:48;;;;;;;1.10;1.00;;;18.40;40.70;;;;;;5010613;28;20541;-59
2023/03/28 09:35:17;;;;;;;1.97;1.10;;;18.30;40.60;;;;;;5017930;28;20441;-67
2023/03/28 09:37:49;;;;;;;1.93;1.20;;;18.40;40.70;;;;;;5011837;28;20986;-58
2023/03/28 09:40:24;;;;;;;1.20;1.10;;;18.40;40.70;;;;;;5012431;28;20447;-60
2023/03/28 09:43:14;;;;;;;1.30;1.20;;;18.40;40.60;;;;;;5016763;28;20448;-58
2023/03/28 09:45:48;;;;;;;0.80;0.70;;;18.40;40.70;;;;;;5018273;28;20495;-59
2023/03/28 09:48:50;;;;;;;1.30;1.20;;;18.40;40.70;;;;;;5016536;28;20516;-63
2023/03/28 09:51:18;;;;;;;1.57;0.93;;;18.40;40.70;;;;;;4996409;28;20461;-59
2023/03/28 09:53:45;;;;;;;0.87;0.87;;;18.40;40.70;;;;;;5019574;28;20495;-61
2023/03/28 09:56:27;;;;;;;1.00;0.90;;;18.30;40.60;;;;;;5020533;28;20448;-60
2023/03/28 09:58:58;;;;;;;1.33;1.23;;;18.40;40.60;;;;;;5018087;28;20464;-58
2023/03/28 10:01:44;;;;;;;1.00;0.90;;;18.30;40.50;;;;;;5015837;28;20434;-58
2023/03/28 10:04:18;;;;;;;1.00;0.90;;;18.40;40.70;;;;;;5017716;28;20500;-63
2023/03/28 10:06:45;;;;;;;0.90;0.90;;;18.40;40.60;;;;;;5019067;28;20506;-58
2023/03/28 10:09:21;;;;;;;0.90;0.70;;;18.40;40.70;;;;;;5018621;28;20423;-61
2023/03/28 10:11:58;;;;;;;1.10;1.00;;;18.40;40.70;;;;;;5015238;28;20470;-62
2023/03/28 10:14:35;;;;;;;1.17;0.90;;;18.30;40.60;;;;;;5017511;28;20489;-59
2023/03/28 10:17:06;;;;;;;1.60;0.80;;;18.30;40.50;;;;;;5014921;28;20784;-59
2023/03/28 10:19:36;;;;;;;1.33;0.80;;;18.40;40.60;;;;;;5013224;28;20474;-67
2023/03/28 10:22:09;;;;;;;0.83;0.83;;;18.40;40.60;;;;;;5010442;28;20464;-64
2023/03/28 10:24:36;;;;;;;1.00;0.90;;;18.40;40.70;;;;;;5013404;28;22256;-61
2023/03/28 10:27:22;;;;;;;1.10;1.00;;;18.40;40.60;;;;;;5011463;28;20921;-60
2023/03/28 10:29:49;;;;;;;0.90;0.83;;;18.40;40.60;;;;;;5014280;28;20435;-59
2023/03/28 10:32:32;;;;;;;1.13;0.90;;;18.40;40.70;;;;;;5013996;28;20446;-63
2023/03/28 10:35:26;;;;;;;1.03;0.90;;;18.40;40.60;;;;;;5012587;28;20426;-63
2023/03/28 10:37:55;;;;;;;1.67;0.80;;;18.40;40.60;;;;;;5013256;28;20435;-59
2023/03/28 10:40:22;;;;;;;1.00;0.77;;;18.40;40.60;;;;;;5015562;28;20436;-60
2023/03/28 10:42:51;;;;;;;0.90;0.90;;;18.40;40.60;;;;;;5014597;28;20537;-60
2023/03/28 10:45:37;;;;;;;1.00;0.90;;;18.40;40.60;;;;;;5017938;28;20457;-62
2023/03/28 10:48:13;;;;;;;0.80;0.70;;;18.40;40.60;;;;;;5021755;28;20451;-65
2023/03/28 10:50:52;;;;;;;0.80;0.70;;;18.40;40.60;;;;;;5017571;28;20878;-60
2023/03/28 10:53:46;;;;;;;0.80;0.70;;;18.30;40.50;;;;;;5011995;28;20554;-62
2023/03/28 10:56:51;;;;;;;1.00;0.90;;;18.40;40.60;;;;;;5009593;28;21154;-61
2023/03/28 10:59:34;;;;;;;0.87;0.70;;;18.30;40.50;;;;;;5016100;28;20442;-62
2023/03/28 11:02:06;;;;;;;0.80;0.80;;;18.30;40.60;;;;;;5018077;28;21266;-61
2023/03/28 11:05:10;;;;;;;1.33;0.90;;;18.30;40.60;;;;;;5015738;28;20466;-62
2023/03/28 11:08:01;;;;;;;0.80;0.80;;;18.30;40.50;;;;;;5016623;28;20434;-62
2023/03/28 11:10:33;;;;;;;0.87;0.73;;;18.30;40.60;;;;;;5018995;28;20483;-60
2023/03/28 11:13:13;;;;;;;1.00;0.90;;;18.30;40.60;;;;;;5017011;28;20449;-61
2023/03/28 11:16:00;;;;;;;1.33;0.70;;;18.30;40.60;;;;;;5017263;28;20549;-60
2023/03/28 11:18:38;;;;;;;0.90;0.80;;;18.30;40.60;;;;;;5016625;28;20486;-59
2023/03/28 11:21:30;;;;;;;0.80;0.80;;;18.30;40.60;;;;;;5021242;28;20430;-60
2023/03/28 11:24:03;;;;;;;1.00;0.80;;;18.30;40.60;;;;;;5021859;28;20517;-58
2023/03/28 11:26:44;;;;;;;1.03;0.70;;;18.30;40.60;;;;;;5021415;28;20472;-66
2023/03/28 11:29:38;;;;;;;0.80;0.80;;;18.30;40.60;;;;;;5017870;28;20954;-62
2023/03/28 11:32:18;;;;;;;0.90;0.90;;;18.30;40.60;;;;;;5014403;28;20859;-62
2023/03/28 11:35:25;;;;;;;1.00;0.90;;;18.30;40.60;;;;;;5020470;28;20502;-60
2023/03/28 11:38:03;;;;;;;1.03;0.77;;;18.30;40.60;;;;;;5018657;28;20469;-60
2023/03/28 11:40:47;;;;;;;0.80;0.80;;;18.30;40.60;;;;;;5019879;28;20558;-58
2023/03/28 11:43:20;;;;;;;0.83;0.80;;;18.30;40.60;;;;;;5018801;28;20527;-61
2023/03/28 11:45:50;;;;;;;1.50;0.87;;;18.30;40.60;;;;;;5015380;28;20438;-61
2023/03/28 11:48:25;;;;;;;1.10;1.00;;;18.30;40.60;;;;;;5009389;28;20427;-67
2023/03/28 11:51:02;;;;;;;0.90;0.77;;;18.30;40.60;;;;;;5017307;28;20804;-63
2023/03/28 11:53:36;;;;;;;0.80;0.63;;;18.30;40.60;;;;;;5016042;28;20439;-59
2023/03/28 11:56:35;;;;;;;0.70;0.70;;;18.30;40.60;;;;;;5009800;28;20440;-62
2023/03/28 11:59:06;;;;;;;0.97;0.63;;;18.30;40.60;;;;;;4984682;28;20447;-62
2023/03/28 12:01:38;;;;;;;0.70;0.70;;;18.30;40.60;;;;;;5014257;28;20468;-60
2023/03/28 12:04:15;;;;;;;1.10;0.73;;;18.30;40.60;;;;;;5014515;28;20618;-59
2023/03/28 12:06:52;;;;;;;0.90;0.63;;;18.30;40.50;;;;;;5014847;28;20421;-60
2023/03/28 12:09:32;;;;;;;0.80;0.80;;;18.30;40.50;;;;;;5015480;28;20463;-59
2023/03/28 12:12:11;;;;;;;0.70;0.60;;;18.30;40.50;;;;;;5013696;28;20450;-63
2023/03/28 12:14:52;;;;;;;1.17;0.90;;;18.30;40.50;;;;;;5016791;28;20470;-59
2023/03/28 12:17:30;;;;;;;0.80;0.80;;;18.30;40.50;;;;;;5016219;28;20865;-59
2023/03/28 12:19:56;;;;;;;0.70;0.70;;;18.30;40.50;;;;;;5018731;28;20543;-64
2023/03/28 12:22:34;;;;;;;0.80;0.73;;;18.30;40.60;;;;;;5015050;28;20463;-61
2023/03/28 12:25:28;;;;;;;0.80;0.70;;;18.30;40.60;;;;;;5014044;28;20762;-60
2023/03/28 12:28:38;;;;;;;0.70;0.70;;;18.30;40.50;;;;;;5016641;28;20449;-61
2023/03/28 12:31:49;;;;;;;0.70;0.60;;;18.30;40.50;;;;;;4980753;28;20472;-60
2023/03/28 12:34:42;;;;;;;0.70;0.70;;;18.30;40.50;;;;;;5014938;28;20434;-60
2023/03/28 12:37:19;;;;;;;0.73;0.73;;;18.30;40.60;;;;;;5012724;28;20426;-61
2023/03/28 12:40:12;;;;;;;0.87;0.70;;;18.30;40.50;;;;;;5017245;28;20534;-60
2023/03/28 12:42:41;;;;;;;0.97;0.80;;;18.30;40.60;;;;;;5014150;28;20483;-60
2023/03/28 12:45:15;;;;;;;0.83;0.70;;;18.30;40.60;;;;;;5012294;28;20483;-60
2023/03/28 12:47:46;;;;;;;0.90;0.80;;;18.30;40.60;;;;;;5014521;28;20573;-63
2023/03/28 12:50:29;;;;;;;0.80;0.60;;;18.30;40.60;;;;;;5016523;28;20927;-60
2023/03/28 12:52:56;;;;;;;0.70;0.70;;;18.30;40.60;;;;;;5013519;28;20455;-61
2023/03/28 12:55:25;;;;;;;0.90;0.80;;;18.40;40.60;;;;;;5013998;28;20451;-59
2023/03/28 12:57:53;;;;;;;0.80;0.80;;;18.40;40.60;;;;;;5013948;28;20473;-61
2023/03/28 13:00:37;;;;;;;0.70;0.67;;;18.40;40.60;;;;;;5016142;28;20506;-63
2023/03/28 13:03:04;;;;;;;0.73;0.70;;;18.40;40.60;;;;;;5006897;28;20471;-62
2023/03/28 13:05:38;;;;;;;0.70;0.60;;;18.40;40.70;;;;;;5011795;28;20689;-62
2023/03/28 13:08:33;;;;;;;0.93;0.70;;;18.40;40.60;;;;;;5012479;28;20439;-61
2023/03/28 13:11:12;;;;;;;0.70;0.60;;;18.40;40.60;;;;;;5018306;28;20479;-61
2023/03/28 13:14:07;;;;;;;0.80;0.70;;;18.40;40.60;;;;;;5012663;28;20437;-61